sensor_id;sensor_type;location;lat;lon;timestamp;temperature;humidity
8436;DHT22;4255;48.730;9.156;2023-07-08T00:01:17;23.40;33.30
8436;DHT22;4255;48.730;9.156;2023-07-08T00:03:43;23.40;33.40
8436;DHT22;4255;48.730;9.156;2023-07-08T00:06:19;23.40;33.30
8436;DHT22;4255;48.730;9.156;2023-07-08T00:08:45;23.50;33.20
8436;DHT22;4255;48.730;9.156;2023-07-08T00:11:12;23.40;33.30
8436;DHT22;4255;48.730;9.156;2023-07-08T00:13:38;23.30;33.30
8436;DHT22;4255;48.730;9.156;2023-07-08T00:16:03;23.30;33.90
8436;DHT22;4255;48.730;9.156;2023-07-08T00:18:29;23.30;33.70
8436;DHT22;4255;48.730;9.156;2023-07-08T00:20:55;23.20;34.40
8436;DHT22;4255;48.730;9.156;2023-07-08T00:23:20;23.20;34.30
8436;DHT22;4255;48.730;9.156;2023-07-08T00:25:48;23.10;34.00
8436;DHT22;4255;48.730;9.156;2023-07-08T00:28:19;23.10;34.00
8436;DHT22;4255;48.730;9.156;2023-07-08T00:30:45;23.00;34.30
8436;DHT22;4255;48.730;9.156;2023-07-08T00:33:11;23.00;34.20
8436;DHT22;4255;48.730;9.156;2023-07-08T00:35:41;23.00;34.40
8436;DHT22;4255;48.730;9.156;2023-07-08T00:38:23;23.00;34.30
8436;DHT22;4255;48.730;9.156;2023-07-08T00:41:11;23.00;34.10
8436;DHT22;4255;48.730;9.156;2023-07-08T00:43:39;23.00;34.30
8436;DHT22;4255;48.730;9.156;2023-07-08T00:51:32;22.70;35.20
8436;DHT22;4255;48.730;9.156;2023-07-08T00:53:58;22.70;35.60
8436;DHT22;4255;48.730;9.156;2023-07-08T00:56:36;22.80;35.60
8436;DHT22;4255;48.730;9.156;2023-07-08T00:59:09;22.80;35.60
8436;DHT22;4255;48.730;9.156;2023-07-08T01:01:41;22.70;35.60
8436;DHT22;4255;48.730;9.156;2023-07-08T01:04:17;22.90;35.50
8436;DHT22;4255;48.730;9.156;2023-07-08T01:06:50;22.70;35.80
8436;DHT22;4255;48.730;9.156;2023-07-08T01:09:44;22.60;35.80
8436;DHT22;4255;48.730;9.156;2023-07-08T01:12:17;22.60;36.10
8436;DHT22;4255;48.730;9.156;2023-07-08T01:14:45;22.50;36.90
8436;DHT22;4255;48.730;9.156;2023-07-08T01:17:11;22.50;37.10
8436;DHT22;4255;48.730;9.156;2023-07-08T01:19:40;22.50;37.60
8436;DHT22;4255;48.730;9.156;2023-07-08T01:22:07;22.40;37.70
8436;DHT22;4255;48.730;9.156;2023-07-08T01:24:35;22.40;38.10
8436;DHT22;4255;48.730;9.156;2023-07-08T01:27:03;22.40;39.10
8436;DHT22;4255;48.730;9.156;2023-07-08T01:29:29;22.30;39.50
8436;DHT22;4255;48.730;9.156;2023-07-08T01:31:56;22.20;39.50
8436;DHT22;4255;48.730;9.156;2023-07-08T01:34:22;22.10;40.80
8436;DHT22;4255;48.730;9.156;2023-07-08T01:36:53;22.10;40.90
8436;DHT22;4255;48.730;9.156;2023-07-08T01:39:21;22.10;41.00
8436;DHT22;4255;48.730;9.156;2023-07-08T01:41:47;22.00;42.00
8436;DHT22;4255;48.730;9.156;2023-07-08T01:44:23;21.90;42.60
8436;DHT22;4255;48.730;9.156;2023-07-08T01:46:50;21.90;42.80
8436;DHT22;4255;48.730;9.156;2023-07-08T01:49:17;21.80;43.40
8436;DHT22;4255;48.730;9.156;2023-07-08T01:51:44;21.70;43.60
8436;DHT22;4255;48.730;9.156;2023-07-08T01:54:10;21.70;43.80
8436;DHT22;4255;48.730;9.156;2023-07-08T01:56:35;21.60;44.80
8436;DHT22;4255;48.730;9.156;2023-07-08T01:59:02;21.60;44.70
8436;DHT22;4255;48.730;9.156;2023-07-08T02:01:27;21.60;45.70
8436;DHT22;4255;48.730;9.156;2023-07-08T02:03:53;21.50;45.90
8436;DHT22;4255;48.730;9.156;2023-07-08T02:06:18;21.50;46.10
8436;DHT22;4255;48.730;9.156;2023-07-08T02:08:44;21.50;46.20
8436;DHT22;4255;48.730;9.156;2023-07-08T02:11:10;21.40;46.30
8436;DHT22;4255;48.730;9.156;2023-07-08T02:13:35;21.40;46.50
8436;DHT22;4255;48.730;9.156;2023-07-08T02:16:01;21.40;46.70
8436;DHT22;4255;48.730;9.156;2023-07-08T02:18:27;21.30;47.40
8436;DHT22;4255;48.730;9.156;2023-07-08T02:20:52;21.30;48.10
8436;DHT22;4255;48.730;9.156;2023-07-08T02:23:18;21.30;48.20
8436;DHT22;4255;48.730;9.156;2023-07-08T02:25:54;21.30;49.50
8436;DHT22;4255;48.730;9.156;2023-07-08T02:28:20;21.20;50.80
8436;DHT22;4255;48.730;9.156;2023-07-08T02:30:46;21.10;50.70
8436;DHT22;4255;48.730;9.156;2023-07-08T02:33:12;21.10;50.70
8436;DHT22;4255;48.730;9.156;2023-07-08T02:35:40;21.10;51.50
8436;DHT22;4255;48.730;9.156;2023-07-08T02:38:05;21.10;52.20
8436;DHT22;4255;48.730;9.156;2023-07-08T02:40:31;21.10;51.90
8436;DHT22;4255;48.730;9.156;2023-07-08T02:42:57;21.10;52.00
8436;DHT22;4255;48.730;9.156;2023-07-08T02:45:22;21.10;52.30
8436;DHT22;4255;48.730;9.156;2023-07-08T02:47:48;21.10;52.10
8436;DHT22;4255;48.730;9.156;2023-07-08T02:50:13;21.20;52.00
8436;DHT22;4255;48.730;9.156;2023-07-08T02:52:39;21.20;52.40
8436;DHT22;4255;48.730;9.156;2023-07-08T02:55:05;21.10;54.90
8436;DHT22;4255;48.730;9.156;2023-07-08T02:57:31;20.90;56.50
8436;DHT22;4255;48.730;9.156;2023-07-08T02:59:57;20.80;58.00
8436;DHT22;4255;48.730;9.156;2023-07-08T03:02:23;20.50;59.60
8436;DHT22;4255;48.730;9.156;2023-07-08T03:04:49;20.50;58.50
8436;DHT22;4255;48.730;9.156;2023-07-08T03:07:17;20.60;59.00
8436;DHT22;4255;48.730;9.156;2023-07-08T03:09:42;20.70;58.00
8436;DHT22;4255;48.730;9.156;2023-07-08T03:12:10;20.90;56.90
8436;DHT22;4255;48.730;9.156;2023-07-08T03:14:36;20.90;58.80
8436;DHT22;4255;48.730;9.156;2023-07-08T03:17:03;20.90;58.00
8436;DHT22;4255;48.730;9.156;2023-07-08T03:19:28;20.80;57.20
8436;DHT22;4255;48.730;9.156;2023-07-08T03:21:54;20.90;55.90
8436;DHT22;4255;48.730;9.156;2023-07-08T03:24:20;20.90;57.70
8436;DHT22;4255;48.730;9.156;2023-07-08T03:26:46;21.00;58.70
8436;DHT22;4255;48.730;9.156;2023-07-08T03:29:16;21.00;56.50
8436;DHT22;4255;48.730;9.156;2023-07-08T03:31:42;21.20;55.30
8436;DHT22;4255;48.730;9.156;2023-07-08T03:34:13;21.20;54.10
8436;DHT22;4255;48.730;9.156;2023-07-08T03:36:44;21.40;54.50
8436;DHT22;4255;48.730;9.156;2023-07-08T03:39:15;21.40;55.80
8436;DHT22;4255;48.730;9.156;2023-07-08T03:41:41;21.40;54.80
8436;DHT22;4255;48.730;9.156;2023-07-08T03:44:07;21.40;55.40
8436;DHT22;4255;48.730;9.156;2023-07-08T03:46:32;21.50;54.90
8436;DHT22;4255;48.730;9.156;2023-07-08T03:48:58;21.60;55.10
8436;DHT22;4255;48.730;9.156;2023-07-08T03:51:27;21.60;56.10
8436;DHT22;4255;48.730;9.156;2023-07-08T03:53:54;21.50;56.20
8436;DHT22;4255;48.730;9.156;2023-07-08T03:56:20;21.50;56.60
8436;DHT22;4255;48.730;9.156;2023-07-08T03:58:45;21.40;57.80
8436;DHT22;4255;48.730;9.156;2023-07-08T04:01:19;21.40;57.30
8436;DHT22;4255;48.730;9.156;2023-07-08T04:03:46;21.40;56.70
8436;DHT22;4255;48.730;9.156;2023-07-08T04:06:13;21.40;56.30
8436;DHT22;4255;48.730;9.156;2023-07-08T04:08:39;21.50;56.70
8436;DHT22;4255;48.730;9.156;2023-07-08T04:11:05;21.60;55.90
8436;DHT22;4255;48.730;9.156;2023-07-08T04:13:35;21.80;55.90
8436;DHT22;4255;48.730;9.156;2023-07-08T04:16:04;22.00;55.20
8436;DHT22;4255;48.730;9.156;2023-07-08T04:18:31;22.20;54.00
8436;DHT22;4255;48.730;9.156;2023-07-08T04:20:56;22.30;54.50
8436;DHT22;4255;48.730;9.156;2023-07-08T04:23:22;22.50;53.00
8436;DHT22;4255;48.730;9.156;2023-07-08T04:25:54;22.80;53.70
8436;DHT22;4255;48.730;9.156;2023-07-08T04:28:21;23.00;52.70
8436;DHT22;4255;48.730;9.156;2023-07-08T04:30:47;23.20;51.40
8436;DHT22;4255;48.730;9.156;2023-07-08T04:33:14;23.40;51.10
8436;DHT22;4255;48.730;9.156;2023-07-08T04:35:41;23.60;50.30
8436;DHT22;4255;48.730;9.156;2023-07-08T04:38:22;23.80;52.00
8436;DHT22;4255;48.730;9.156;2023-07-08T04:40:49;24.00;54.30
8436;DHT22;4255;48.730;9.156;2023-07-08T04:43:20;24.10;52.90
8436;DHT22;4255;48.730;9.156;2023-07-08T04:45:48;24.20;53.10
8436;DHT22;4255;48.730;9.156;2023-07-08T04:48:16;24.10;54.40
8436;DHT22;4255;48.730;9.156;2023-07-08T04:50:46;24.00;54.10
8436;DHT22;4255;48.730;9.156;2023-07-08T04:53:12;23.90;54.00
8436;DHT22;4255;48.730;9.156;2023-07-08T04:55:41;24.00;54.60
8436;DHT22;4255;48.730;9.156;2023-07-08T04:58:07;23.90;53.70
8436;DHT22;4255;48.730;9.156;2023-07-08T05:00:33;24.00;53.80
8436;DHT22;4255;48.730;9.156;2023-07-08T05:02:59;24.10;55.80
8436;DHT22;4255;48.730;9.156;2023-07-08T05:05:25;24.30;54.90
8436;DHT22;4255;48.730;9.156;2023-07-08T05:07:51;24.30;55.00
8436;DHT22;4255;48.730;9.156;2023-07-08T05:10:17;24.50;53.80
8436;DHT22;4255;48.730;9.156;2023-07-08T05:15:15;24.40;53.90
8436;DHT22;4255;48.730;9.156;2023-07-08T05:17:41;24.20;53.30
8436;DHT22;4255;48.730;9.156;2023-07-08T05:20:09;24.20;54.30
8436;DHT22;4255;48.730;9.156;2023-07-08T05:22:36;24.20;54.20
8436;DHT22;4255;48.730;9.156;2023-07-08T05:25:02;24.30;54.00
8436;DHT22;4255;48.730;9.156;2023-07-08T05:27:27;24.50;54.60
8436;DHT22;4255;48.730;9.156;2023-07-08T05:29:53;24.70;55.30
8436;DHT22;4255;48.730;9.156;2023-07-08T05:32:19;25.00;54.50
8436;DHT22;4255;48.730;9.156;2023-07-08T05:34:46;24.90;52.60
8436;DHT22;4255;48.730;9.156;2023-07-08T05:37:12;24.70;53.10
8436;DHT22;4255;48.730;9.156;2023-07-08T05:39:38;24.60;53.00
8436;DHT22;4255;48.730;9.156;2023-07-08T05:42:04;24.30;52.50
8436;DHT22;4255;48.730;9.156;2023-07-08T05:44:30;24.20;52.70
8436;DHT22;4255;48.730;9.156;2023-07-08T05:46:55;24.30;53.30
8436;DHT22;4255;48.730;9.156;2023-07-08T05:49:21;24.30;52.90
8436;DHT22;4255;48.730;9.156;2023-07-08T05:51:47;24.30;52.80
8436;DHT22;4255;48.730;9.156;2023-07-08T05:54:13;24.30;53.70
8436;DHT22;4255;48.730;9.156;2023-07-08T05:56:39;24.30;54.80
8436;DHT22;4255;48.730;9.156;2023-07-08T05:59:05;24.20;54.50
8436;DHT22;4255;48.730;9.156;2023-07-08T06:01:31;24.30;54.70
8436;DHT22;4255;48.730;9.156;2023-07-08T06:03:57;24.30;54.60
8436;DHT22;4255;48.730;9.156;2023-07-08T06:06:27;24.50;55.60
8436;DHT22;4255;48.730;9.156;2023-07-08T06:08:53;24.60;53.90
8436;DHT22;4255;48.730;9.156;2023-07-08T06:11:19;24.80;53.70
8436;DHT22;4255;48.730;9.156;2023-07-08T06:13:45;24.90;52.60
8436;DHT22;4255;48.730;9.156;2023-07-08T06:16:11;25.00;53.40
8436;DHT22;4255;48.730;9.156;2023-07-08T06:18:37;25.10;53.20
8436;DHT22;4255;48.730;9.156;2023-07-08T06:21:02;25.00;53.90
8436;DHT22;4255;48.730;9.156;2023-07-08T06:23:29;25.10;55.00
8436;DHT22;4255;48.730;9.156;2023-07-08T06:25:55;25.40;53.40
8436;DHT22;4255;48.730;9.156;2023-07-08T06:28:21;25.50;52.60
8436;DHT22;4255;48.730;9.156;2023-07-08T06:30:47;25.50;52.40
8436;DHT22;4255;48.730;9.156;2023-07-08T06:33:13;25.60;52.20
8436;DHT22;4255;48.730;9.156;2023-07-08T06:35:39;25.70;51.40
8436;DHT22;4255;48.730;9.156;2023-07-08T06:38:06;25.80;51.30
8436;DHT22;4255;48.730;9.156;2023-07-08T06:40:32;25.80;51.50
8436;DHT22;4255;48.730;9.156;2023-07-08T06:42:58;25.80;51.60
8436;DHT22;4255;48.730;9.156;2023-07-08T06:45:24;25.80;51.50
8436;DHT22;4255;48.730;9.156;2023-07-08T06:47:49;25.90;53.10
8436;DHT22;4255;48.730;9.156;2023-07-08T06:50:15;26.00;53.00
8436;DHT22;4255;48.730;9.156;2023-07-08T06:52:41;26.20;52.80
8436;DHT22;4255;48.730;9.156;2023-07-08T06:55:09;26.40;52.90
8436;DHT22;4255;48.730;9.156;2023-07-08T06:57:36;26.50;51.90
8436;DHT22;4255;48.730;9.156;2023-07-08T07:00:05;26.80;53.70
8436;DHT22;4255;48.730;9.156;2023-07-08T07:02:31;27.00;52.80
8436;DHT22;4255;48.730;9.156;2023-07-08T07:04:56;27.20;51.80
8436;DHT22;4255;48.730;9.156;2023-07-08T07:07:22;27.40;51.10
8436;DHT22;4255;48.730;9.156;2023-07-08T07:09:48;27.00;50.70
8436;DHT22;4255;48.730;9.156;2023-07-08T07:12:13;26.90;52.30
8436;DHT22;4255;48.730;9.156;2023-07-08T07:14:39;26.70;52.50
8436;DHT22;4255;48.730;9.156;2023-07-08T07:17:04;26.80;52.00
8436;DHT22;4255;48.730;9.156;2023-07-08T07:19:30;26.60;52.60
8436;DHT22;4255;48.730;9.156;2023-07-08T07:21:56;26.50;53.70
8436;DHT22;4255;48.730;9.156;2023-07-08T07:24:21;26.60;53.40
8436;DHT22;4255;48.730;9.156;2023-07-08T07:26:47;26.60;52.60
8436;DHT22;4255;48.730;9.156;2023-07-08T07:29:16;26.70;53.80
8436;DHT22;4255;48.730;9.156;2023-07-08T07:31:42;26.80;53.30
8436;DHT22;4255;48.730;9.156;2023-07-08T07:34:08;26.60;53.10
8436;DHT22;4255;48.730;9.156;2023-07-08T07:36:34;26.70;54.00
8436;DHT22;4255;48.730;9.156;2023-07-08T07:39:00;26.30;53.60
8436;DHT22;4255;48.730;9.156;2023-07-08T07:41:25;26.20;54.40
8436;DHT22;4255;48.730;9.156;2023-07-08T07:43:51;26.40;55.30
8436;DHT22;4255;48.730;9.156;2023-07-08T07:46:17;26.50;54.90
8436;DHT22;4255;48.730;9.156;2023-07-08T07:48:42;26.60;55.10
8436;DHT22;4255;48.730;9.156;2023-07-08T07:51:08;26.50;54.80
8436;DHT22;4255;48.730;9.156;2023-07-08T07:53:36;26.50;54.70
8436;DHT22;4255;48.730;9.156;2023-07-08T07:56:03;26.70;55.30
8436;DHT22;4255;48.730;9.156;2023-07-08T07:58:29;26.60;54.60
8436;DHT22;4255;48.730;9.156;2023-07-08T08:00:55;26.70;54.90
8436;DHT22;4255;48.730;9.156;2023-07-08T08:03:21;26.80;55.30
8436;DHT22;4255;48.730;9.156;2023-07-08T08:05:47;26.80;54.10
8436;DHT22;4255;48.730;9.156;2023-07-08T08:08:13;26.80;54.70
8436;DHT22;4255;48.730;9.156;2023-07-08T08:10:38;26.60;55.20
8436;DHT22;4255;48.730;9.156;2023-07-08T08:13:04;26.70;55.40
8436;DHT22;4255;48.730;9.156;2023-07-08T08:15:30;26.80;55.30
8436;DHT22;4255;48.730;9.156;2023-07-08T08:17:56;27.20;55.60
8436;DHT22;4255;48.730;9.156;2023-07-08T08:20:23;27.40;55.60
8436;DHT22;4255;48.730;9.156;2023-07-08T08:22:50;27.70;55.90
8436;DHT22;4255;48.730;9.156;2023-07-08T08:25:19;28.10;54.50
8436;DHT22;4255;48.730;9.156;2023-07-08T08:27:45;28.50;54.10
8436;DHT22;4255;48.730;9.156;2023-07-08T08:30:11;28.70;53.80
8436;DHT22;4255;48.730;9.156;2023-07-08T08:32:37;28.70;52.00
8436;DHT22;4255;48.730;9.156;2023-07-08T08:35:04;28.70;52.30
8436;DHT22;4255;48.730;9.156;2023-07-08T08:37:30;28.70;52.40
8436;DHT22;4255;48.730;9.156;2023-07-08T08:39:55;28.80;53.30
8436;DHT22;4255;48.730;9.156;2023-07-08T08:44:56;28.90;53.20
8436;DHT22;4255;48.730;9.156;2023-07-08T08:47:58;28.70;53.70
8436;DHT22;4255;48.730;9.156;2023-07-08T08:50:32;28.70;53.70
8436;DHT22;4255;48.730;9.156;2023-07-08T08:53:02;28.70;53.20
8436;DHT22;4255;48.730;9.156;2023-07-08T08:55:29;28.70;52.40
8436;DHT22;4255;48.730;9.156;2023-07-08T08:58:18;28.90;52.50
8436;DHT22;4255;48.730;9.156;2023-07-08T09:06:24;29.90;46.90
8436;DHT22;4255;48.730;9.156;2023-07-08T09:08:51;30.50;47.40
8436;DHT22;4255;48.730;9.156;2023-07-08T09:14:00;30.90;45.90
8436;DHT22;4255;48.730;9.156;2023-07-08T09:19:15;30.80;45.00
8436;DHT22;4255;48.730;9.156;2023-07-08T09:24:55;30.90;46.40
8436;DHT22;4255;48.730;9.156;2023-07-08T09:27:18;30.60;44.00
8436;DHT22;4255;48.730;9.156;2023-07-08T09:29:45;30.20;44.70
8436;DHT22;4255;48.730;9.156;2023-07-08T09:32:18;30.20;45.30
8436;DHT22;4255;48.730;9.156;2023-07-08T09:34:47;30.10;45.90
8436;DHT22;4255;48.730;9.156;2023-07-08T09:37:31;29.80;45.00
8436;DHT22;4255;48.730;9.156;2023-07-08T09:39:59;29.70;46.20
8436;DHT22;4255;48.730;9.156;2023-07-08T09:42:31;29.70;44.30
8436;DHT22;4255;48.730;9.156;2023-07-08T09:45:08;29.80;45.30
8436;DHT22;4255;48.730;9.156;2023-07-08T09:47:37;29.80;45.10
8436;DHT22;4255;48.730;9.156;2023-07-08T09:50:26;29.70;44.20
8436;DHT22;4255;48.730;9.156;2023-07-08T09:52:54;29.90;45.80
8436;DHT22;4255;48.730;9.156;2023-07-08T09:55:21;30.30;45.20
8436;DHT22;4255;48.730;9.156;2023-07-08T09:57:48;30.60;44.70
8436;DHT22;4255;48.730;9.156;2023-07-08T10:00:25;30.70;44.30
8436;DHT22;4255;48.730;9.156;2023-07-08T10:02:55;30.60;45.40
8436;DHT22;4255;48.730;9.156;2023-07-08T10:07:55;29.90;45.90
8436;DHT22;4255;48.730;9.156;2023-07-08T10:10:33;29.60;47.00
8436;DHT22;4255;48.730;9.156;2023-07-08T10:13:06;29.30;47.80
8436;DHT22;4255;48.730;9.156;2023-07-08T10:15:43;29.00;49.80
8436;DHT22;4255;48.730;9.156;2023-07-08T10:18:17;28.90;49.40
8436;DHT22;4255;48.730;9.156;2023-07-08T10:21:12;28.90;50.90
8436;DHT22;4255;48.730;9.156;2023-07-08T10:26:30;29.00;49.70
8436;DHT22;4255;48.730;9.156;2023-07-08T10:34:47;29.90;49.70
8436;DHT22;4255;48.730;9.156;2023-07-08T10:40:31;30.50;46.80
8436;DHT22;4255;48.730;9.156;2023-07-08T10:43:15;30.70;46.60
8436;DHT22;4255;48.730;9.156;2023-07-08T10:45:47;30.80;46.00
8436;DHT22;4255;48.730;9.156;2023-07-08T10:48:30;30.80;45.90
8436;DHT22;4255;48.730;9.156;2023-07-08T10:54:05;30.80;45.00
8436;DHT22;4255;48.730;9.156;2023-07-08T11:07:22;30.60;45.40
8436;DHT22;4255;48.730;9.156;2023-07-08T11:09:58;30.50;45.00
8436;DHT22;4255;48.730;9.156;2023-07-08T11:12:29;30.60;44.60
8436;DHT22;4255;48.730;9.156;2023-07-08T11:17:47;30.60;45.70
8436;DHT22;4255;48.730;9.156;2023-07-08T11:22:51;30.50;44.50
8436;DHT22;4255;48.730;9.156;2023-07-08T11:25:20;30.50;45.50
8436;DHT22;4255;48.730;9.156;2023-07-08T11:27:49;30.70;46.10
8436;DHT22;4255;48.730;9.156;2023-07-08T11:30:21;31.20;45.70
8436;DHT22;4255;48.730;9.156;2023-07-08T11:32:48;31.60;44.80
8436;DHT22;4255;48.730;9.156;2023-07-08T11:35:33;31.80;44.40
8436;DHT22;4255;48.730;9.156;2023-07-08T11:38:01;32.00;43.80
8436;DHT22;4255;48.730;9.156;2023-07-08T11:40:28;32.00;42.30
8436;DHT22;4255;48.730;9.156;2023-07-08T11:43:05;31.90;43.80
8436;DHT22;4255;48.730;9.156;2023-07-08T11:45:38;31.90;43.70
8436;DHT22;4255;48.730;9.156;2023-07-08T11:48:09;32.30;43.10
8436;DHT22;4255;48.730;9.156;2023-07-08T11:50:40;32.40;42.40
8436;DHT22;4255;48.730;9.156;2023-07-08T11:53:11;32.80;40.80
8436;DHT22;4255;48.730;9.156;2023-07-08T11:55:55;33.20;41.10
8436;DHT22;4255;48.730;9.156;2023-07-08T11:58:27;33.20;40.60
8436;DHT22;4255;48.730;9.156;2023-07-08T12:03:23;33.10;39.60
8436;DHT22;4255;48.730;9.156;2023-07-08T12:05:56;33.10;38.50
8436;DHT22;4255;48.730;9.156;2023-07-08T12:08:34;33.20;40.10
8436;DHT22;4255;48.730;9.156;2023-07-08T12:11:03;33.40;37.80
8436;DHT22;4255;48.730;9.156;2023-07-08T12:13:29;33.50;38.90
8436;DHT22;4255;48.730;9.156;2023-07-08T12:15:55;33.60;39.50
8436;DHT22;4255;48.730;9.156;2023-07-08T12:18:32;33.60;38.00
8436;DHT22;4255;48.730;9.156;2023-07-08T12:21:00;34.00;37.80
8436;DHT22;4255;48.730;9.156;2023-07-08T12:23:29;34.10;36.30
8436;DHT22;4255;48.730;9.156;2023-07-08T12:25:56;33.90;35.60
8436;DHT22;4255;48.730;9.156;2023-07-08T12:28:23;33.70;37.50
8436;DHT22;4255;48.730;9.156;2023-07-08T12:30:50;33.70;37.50
8436;DHT22;4255;48.730;9.156;2023-07-08T12:33:28;33.80;35.00
8436;DHT22;4255;48.730;9.156;2023-07-08T12:35:55;33.60;34.40
8436;DHT22;4255;48.730;9.156;2023-07-08T12:38:37;33.50;35.50
8436;DHT22;4255;48.730;9.156;2023-07-08T12:41:16;33.70;36.80
8436;DHT22;4255;48.730;9.156;2023-07-08T12:43:42;33.80;36.10
8436;DHT22;4255;48.730;9.156;2023-07-08T12:46:11;34.00;35.60
8436;DHT22;4255;48.730;9.156;2023-07-08T12:48:38;34.00;36.20
8436;DHT22;4255;48.730;9.156;2023-07-08T12:51:06;33.90;34.00
8436;DHT22;4255;48.730;9.156;2023-07-08T12:53:35;34.00;35.80
8436;DHT22;4255;48.730;9.156;2023-07-08T12:56:01;34.20;36.00
8436;DHT22;4255;48.730;9.156;2023-07-08T12:58:29;34.10;35.30
8436;DHT22;4255;48.730;9.156;2023-07-08T13:01:01;33.70;33.50
8436;DHT22;4255;48.730;9.156;2023-07-08T13:03:31;33.80;34.90
8436;DHT22;4255;48.730;9.156;2023-07-08T13:06:00;34.10;33.60
8436;DHT22;4255;48.730;9.156;2023-07-08T13:08:30;34.40;34.50
8436;DHT22;4255;48.730;9.156;2023-07-08T13:10:59;34.50;32.20
8436;DHT22;4255;48.730;9.156;2023-07-08T13:13:28;33.60;32.40
8436;DHT22;4255;48.730;9.156;2023-07-08T13:15:55;33.40;34.10
8436;DHT22;4255;48.730;9.156;2023-07-08T13:18:29;33.50;33.80
8436;DHT22;4255;48.730;9.156;2023-07-08T13:20:55;33.40;33.90
8436;DHT22;4255;48.730;9.156;2023-07-08T13:23:22;33.50;32.70
8436;DHT22;4255;48.730;9.156;2023-07-08T13:25:53;33.80;32.90
8436;DHT22;4255;48.730;9.156;2023-07-08T13:28:28;34.30;32.60
8436;DHT22;4255;48.730;9.156;2023-07-08T13:30:55;34.60;31.20
8436;DHT22;4255;48.730;9.156;2023-07-08T13:33:22;34.70;29.50
8436;DHT22;4255;48.730;9.156;2023-07-08T13:35:48;34.70;28.90
8436;DHT22;4255;48.730;9.156;2023-07-08T13:38:17;34.70;29.40
8436;DHT22;4255;48.730;9.156;2023-07-08T13:40:55;34.70;29.60
8436;DHT22;4255;48.730;9.156;2023-07-08T13:43:26;34.90;29.80
8436;DHT22;4255;48.730;9.156;2023-07-08T13:45:52;35.00;28.00
8436;DHT22;4255;48.730;9.156;2023-07-08T13:48:21;35.10;28.30
8436;DHT22;4255;48.730;9.156;2023-07-08T13:51:08;35.20;28.80
8436;DHT22;4255;48.730;9.156;2023-07-08T13:56:19;35.40;99.90
8436;DHT22;4255;48.730;9.156;2023-07-08T13:58:47;35.10;99.90
8436;DHT22;4255;48.730;9.156;2023-07-08T14:01:21;34.50;99.90
8436;DHT22;4255;48.730;9.156;2023-07-08T14:03:48;34.10;99.90
8436;DHT22;4255;48.730;9.156;2023-07-08T14:06:19;33.70;99.90
8436;DHT22;4255;48.730;9.156;2023-07-08T14:08:45;33.40;99.90
8436;DHT22;4255;48.730;9.156;2023-07-08T14:11:10;33.40;30.30
8436;DHT22;4255;48.730;9.156;2023-07-08T14:13:36;33.60;31.60
8436;DHT22;4255;48.730;9.156;2023-07-08T14:16:03;33.90;32.10
8436;DHT22;4255;48.730;9.156;2023-07-08T14:18:32;34.00;29.80
8436;DHT22;4255;48.730;9.156;2023-07-08T14:20:57;34.30;29.70
8436;DHT22;4255;48.730;9.156;2023-07-08T14:23:24;34.30;30.00
8436;DHT22;4255;48.730;9.156;2023-07-08T14:25:49;34.10;30.00
8436;DHT22;4255;48.730;9.156;2023-07-08T14:28:15;33.90;30.90
8436;DHT22;4255;48.730;9.156;2023-07-08T14:30:45;33.50;31.10
8436;DHT22;4255;48.730;9.156;2023-07-08T14:33:13;33.40;31.90
8436;DHT22;4255;48.730;9.156;2023-07-08T14:35:39;33.40;31.20
8436;DHT22;4255;48.730;9.156;2023-07-08T14:38:14;33.30;31.80
8436;DHT22;4255;48.730;9.156;2023-07-08T14:40:41;32.90;31.40
8436;DHT22;4255;48.730;9.156;2023-07-08T14:43:15;32.60;31.60
8436;DHT22;4255;48.730;9.156;2023-07-08T14:45:43;32.70;31.20
8436;DHT22;4255;48.730;9.156;2023-07-08T14:48:12;32.50;31.20
8436;DHT22;4255;48.730;9.156;2023-07-08T14:50:38;32.50;31.40
8436;DHT22;4255;48.730;9.156;2023-07-08T14:53:04;32.50;32.20
8436;DHT22;4255;48.730;9.156;2023-07-08T14:55:30;32.70;31.60
8436;DHT22;4255;48.730;9.156;2023-07-08T14:57:56;32.70;33.30
8436;DHT22;4255;48.730;9.156;2023-07-08T15:00:22;32.90;32.90
8436;DHT22;4255;48.730;9.156;2023-07-08T15:02:49;33.20;32.80
8436;DHT22;4255;48.730;9.156;2023-07-08T15:05:22;33.20;32.40
8436;DHT22;4255;48.730;9.156;2023-07-08T15:07:52;33.20;32.40
8436;DHT22;4255;48.730;9.156;2023-07-08T15:10:20;33.40;32.70
8436;DHT22;4255;48.730;9.156;2023-07-08T15:12:49;33.10;30.90
8436;DHT22;4255;48.730;9.156;2023-07-08T15:15:31;33.00;31.50
8436;DHT22;4255;48.730;9.156;2023-07-08T15:17:58;32.90;30.80
8436;DHT22;4255;48.730;9.156;2023-07-08T15:20:24;32.80;32.10
8436;DHT22;4255;48.730;9.156;2023-07-08T15:22:50;32.70;31.70
8436;DHT22;4255;48.730;9.156;2023-07-08T15:25:17;32.70;31.30
8436;DHT22;4255;48.730;9.156;2023-07-08T15:27:45;32.50;32.00
8436;DHT22;4255;48.730;9.156;2023-07-08T15:30:21;32.70;32.80
8436;DHT22;4255;48.730;9.156;2023-07-08T15:32:47;32.90;32.40
8436;DHT22;4255;48.730;9.156;2023-07-08T15:35:19;33.30;31.90
8436;DHT22;4255;48.730;9.156;2023-07-08T15:37:46;33.60;32.60
8436;DHT22;4255;48.730;9.156;2023-07-08T15:40:17;33.80;32.80
8436;DHT22;4255;48.730;9.156;2023-07-08T15:42:46;34.00;31.10
8436;DHT22;4255;48.730;9.156;2023-07-08T15:45:25;34.30;30.80
8436;DHT22;4255;48.730;9.156;2023-07-08T15:47:51;34.70;99.90
8436;DHT22;4255;48.730;9.156;2023-07-08T15:50:22;35.00;99.90
8436;DHT22;4255;48.730;9.156;2023-07-08T15:52:50;35.20;99.90
8436;DHT22;4255;48.730;9.156;2023-07-08T15:55:30;35.30;99.90
8436;DHT22;4255;48.730;9.156;2023-07-08T15:58:00;35.30;99.90
8436;DHT22;4255;48.730;9.156;2023-07-08T16:00:29;35.50;99.90
8436;DHT22;4255;48.730;9.156;2023-07-08T16:02:58;35.40;99.90
8436;DHT22;4255;48.730;9.156;2023-07-08T16:05:25;35.60;99.90
8436;DHT22;4255;48.730;9.156;2023-07-08T16:07:52;35.50;99.90
8436;DHT22;4255;48.730;9.156;2023-07-08T16:10:19;35.70;99.90
8436;DHT22;4255;48.730;9.156;2023-07-08T16:12:46;35.90;99.90
8436;DHT22;4255;48.730;9.156;2023-07-08T16:15:23;35.90;99.90
8436;DHT22;4255;48.730;9.156;2023-07-08T16:17:51;35.90;99.90
8436;DHT22;4255;48.730;9.156;2023-07-08T16:20:19;35.80;99.90
8436;DHT22;4255;48.730;9.156;2023-07-08T16:22:45;35.40;99.90
8436;DHT22;4255;48.730;9.156;2023-07-08T16:25:15;35.20;99.90
8436;DHT22;4255;48.730;9.156;2023-07-08T16:27:46;35.30;99.90
8436;DHT22;4255;48.730;9.156;2023-07-08T16:30:15;35.60;99.90
8436;DHT22;4255;48.730;9.156;2023-07-08T16:32:41;35.10;99.90
8436;DHT22;4255;48.730;9.156;2023-07-08T16:35:09;35.50;99.90
8436;DHT22;4255;48.730;9.156;2023-07-08T16:37:36;35.80;99.90
8436;DHT22;4255;48.730;9.156;2023-07-08T16:40:01;35.80;99.90
8436;DHT22;4255;48.730;9.156;2023-07-08T16:42:28;35.80;99.90
8436;DHT22;4255;48.730;9.156;2023-07-08T16:44:54;36.10;99.90
8436;DHT22;4255;48.730;9.156;2023-07-08T16:47:19;36.40;99.90
8436;DHT22;4255;48.730;9.156;2023-07-08T16:49:45;36.60;99.90
8436;DHT22;4255;48.730;9.156;2023-07-08T16:52:13;36.90;99.90
8436;DHT22;4255;48.730;9.156;2023-07-08T16:54:40;37.10;99.90
8436;DHT22;4255;48.730;9.156;2023-07-08T16:57:08;37.40;99.90
8436;DHT22;4255;48.730;9.156;2023-07-08T16:59:36;37.60;99.90
8436;DHT22;4255;48.730;9.156;2023-07-08T17:02:09;37.80;99.90
8436;DHT22;4255;48.730;9.156;2023-07-08T17:04:36;37.80;99.90
8436;DHT22;4255;48.730;9.156;2023-07-08T17:07:01;38.00;99.90
8436;DHT22;4255;48.730;9.156;2023-07-08T17:09:27;38.20;99.90
8436;DHT22;4255;48.730;9.156;2023-07-08T17:11:53;38.60;99.90
8436;DHT22;4255;48.730;9.156;2023-07-08T17:14:18;39.00;99.90